Time;durP1;ratioP1;P1;durP2;ratioP2;P2;SDS_P1;SDS_P2;PMS_P1;PMS_P2;Temp;Humidity;BMP_temperature;BMP_pressure;BME280_temperature;BME280_humidity;BME280_pressure;Samples;Min_cycle;Max_cycle;Signal;HPM_P1;HPM_P2
2024/02/19 00:02:20;;;;;;;1.80;1.23;;;9.50;99.90;;;;;;4916038;29;20072;-63
2024/02/19 00:04:47;;;;;;;1.67;1.40;;;9.50;99.90;;;;;;4916381;29;20473;-63
2024/02/19 00:07:17;;;;;;;3.13;1.40;;;9.40;99.90;;;;;;4916451;29;20080;-63
2024/02/19 00:09:45;;;;;;;1.45;1.23;;;9.40;99.90;;;;;;4915711;29;20104;-63
2024/02/19 00:12:12;;;;;;;2.65;1.20;;;9.40;99.90;;;;;;4924932;29;20044;-63
2024/02/19 00:14:39;;;;;;;1.63;1.13;;;9.40;99.90;;;;;;4923565;29;20537;-63
2024/02/19 00:17:07;;;;;;;1.85;1.23;;;9.40;99.90;;;;;;4915302;29;20479;-64
2024/02/19 00:19:34;;;;;;;1.48;1.27;;;9.40;99.90;;;;;;4927458;29;20625;-64
2024/02/19 00:22:01;;;;;;;1.33;1.20;;;9.40;99.90;;;;;;4925876;29;20048;-64
2024/02/19 00:24:28;;;;;;;0.90;0.90;;;9.30;99.90;;;;;;4917480;29;20139;-64
2024/02/19 00:26:55;;;;;;;0.82;0.82;;;9.30;99.90;;;;;;4912587;29;20087;-64
2024/02/19 00:29:21;;;;;;;1.08;0.80;;;9.30;99.90;;;;;;4915015;29;20060;-63
2024/02/19 00:31:48;;;;;;;2.30;1.00;;;9.30;99.90;;;;;;4914991;29;20052;-63
2024/02/19 00:34:15;;;;;;;1.10;1.00;;;9.30;99.90;;;;;;4917947;29;20047;-63
2024/02/19 00:36:42;;;;;;;1.38;1.10;;;9.20;99.90;;;;;;4913691;29;20079;-63
2024/02/19 00:39:09;;;;;;;2.20;0.95;;;9.20;99.90;;;;;;4915287;29;20075;-62
2024/02/19 00:41:36;;;;;;;1.42;0.95;;;9.30;99.90;;;;;;4919594;29;20636;-61
2024/02/19 00:44:03;;;;;;;1.02;0.82;;;9.30;99.90;;;;;;4916217;29;20135;-63
2024/02/19 00:46:31;;;;;;;1.00;0.90;;;9.30;99.90;;;;;;4915575;29;20386;-63
2024/02/19 00:48:57;;;;;;;2.22;0.90;;;9.40;99.90;;;;;;4897110;29;20040;-63
2024/02/19 00:51:24;;;;;;;2.83;1.10;;;9.30;99.90;;;;;;4915991;29;20150;-63
2024/02/19 00:53:51;;;;;;;1.75;1.00;;;9.30;99.90;;;;;;4916428;29;20122;-63
2024/02/19 00:56:18;;;;;;;1.23;1.08;;;9.30;99.90;;;;;;4918830;29;20044;-63
2024/02/19 00:58:44;;;;;;;2.75;1.20;;;9.30;99.90;;;;;;4916617;29;20493;-63
2024/02/19 01:01:11;;;;;;;1.65;0.80;;;9.30;99.90;;;;;;4918818;29;20127;-63
2024/02/19 01:03:38;;;;;;;1.00;0.95;;;9.30;99.90;;;;;;4917510;29;20043;-63
2024/02/19 01:06:05;;;;;;;1.48;1.05;;;9.30;99.90;;;;;;4914677;29;20510;-63
2024/02/19 01:08:32;;;;;;;0.85;0.85;;;9.30;99.90;;;;;;4922487;29;20067;-63
2024/02/19 01:10:58;;;;;;;1.13;0.90;;;9.30;99.90;;;;;;4922540;29;20087;-63
2024/02/19 01:13:25;;;;;;;0.80;0.80;;;9.30;99.90;;;;;;4917304;29;20087;-63
2024/02/19 01:15:52;;;;;;;1.42;0.80;;;9.30;99.90;;;;;;4918370;29;20553;-63
2024/02/19 01:18:19;;;;;;;1.88;0.95;;;9.30;99.90;;;;;;4909382;29;20131;-63
2024/02/19 01:20:46;;;;;;;1.88;1.00;;;9.30;99.90;;;;;;4924454;29;20131;-63
2024/02/19 01:23:12;;;;;;;0.75;0.75;;;9.40;99.90;;;;;;4921553;29;20543;-63
2024/02/19 01:25:40;;;;;;;1.25;1.10;;;9.40;99.90;;;;;;4923358;29;20041;-63
2024/02/19 01:28:06;;;;;;;1.10;1.00;;;9.40;99.90;;;;;;4920535;29;20043;-63
2024/02/19 01:30:33;;;;;;;1.30;1.20;;;9.40;99.90;;;;;;4924633;29;20559;-63
2024/02/19 01:33:01;;;;;;;1.00;0.90;;;9.30;99.90;;;;;;4919057;29;20283;-63
2024/02/19 01:35:28;;;;;;;1.45;0.80;;;9.30;99.90;;;;;;4919869;29;20059;-63
2024/02/19 01:37:55;;;;;;;1.48;0.90;;;9.20;99.90;;;;;;4919691;29;20112;-63
2024/02/19 01:40:22;;;;;;;2.13;1.00;;;9.20;99.90;;;;;;4918326;29;20055;-63
2024/02/19 01:43:01;;;;;;;1.67;0.90;;;9.20;99.90;;;;;;4915118;29;20503;-62
2024/02/19 01:45:28;;;;;;;0.80;0.80;;;9.20;99.90;;;;;;4917586;29;20046;-62
2024/02/19 01:47:56;;;;;;;1.38;0.90;;;9.20;99.90;;;;;;4919732;29;20651;-63
2024/02/19 01:50:24;;;;;;;1.27;1.10;;;9.20;99.90;;;;;;4924302;29;20039;-63
2024/02/19 01:52:52;;;;;;;1.38;1.00;;;9.30;99.90;;;;;;4920585;29;20059;-63
2024/02/19 01:55:20;;;;;;;1.73;1.00;;;9.20;99.90;;;;;;4921531;29;20048;-63
2024/02/19 01:57:48;;;;;;;0.80;0.80;;;9.20;99.90;;;;;;4918637;29;20054;-63
2024/02/19 02:00:17;;;;;;;2.72;1.13;;;9.30;99.90;;;;;;4919728;29;20048;-63
2024/02/19 02:02:44;;;;;;;1.50;1.35;;;9.30;99.90;;;;;;4920217;29;20050;-63
2024/02/19 02:05:11;;;;;;;1.63;0.90;;;9.30;99.90;;;;;;4922139;29;20055;-62
2024/02/19 02:07:38;;;;;;;2.25;0.90;;;9.30;99.90;;;;;;4919030;29;20350;-63
2024/02/19 02:10:05;;;;;;;2.63;1.38;;;9.30;99.90;;;;;;4919651;29;20044;-63
2024/02/19 02:12:32;;;;;;;2.40;1.20;;;9.30;99.90;;;;;;4915311;29;20454;-63
2024/02/19 02:14:59;;;;;;;1.08;0.98;;;9.30;99.90;;;;;;4912919;29;20151;-63
2024/02/19 02:17:26;;;;;;;3.40;1.10;;;9.30;99.90;;;;;;4919664;29;20100;-62
2024/02/19 02:19:53;;;;;;;1.85;1.08;;;9.40;99.90;;;;;;4920878;29;20056;-63
2024/02/19 02:22:20;;;;;;;2.33;1.30;;;9.40;99.90;;;;;;4915670;29;20056;-62
2024/02/19 02:24:47;;;;;;;1.23;1.13;;;9.40;99.90;;;;;;4913841;29;20054;-63
2024/02/19 02:27:13;;;;;;;1.45;1.20;;;9.40;99.90;;;;;;4914067;29;20446;-63
2024/02/19 02:29:40;;;;;;;1.88;1.00;;;9.40;99.90;;;;;;4921321;29;20047;-63
2024/02/19 02:32:07;;;;;;;1.17;1.08;;;9.40;99.90;;;;;;4921055;29;20387;-64
2024/02/19 02:34:34;;;;;;;1.40;1.30;;;9.40;99.90;;;;;;4912795;29;20158;-63
2024/02/19 02:37:04;;;;;;;1.27;1.17;;;9.40;99.90;;;;;;4920253;29;20420;-63
2024/02/19 02:39:31;;;;;;;2.85;1.10;;;9.30;99.90;;;;;;4919050;29;20058;-63
2024/02/19 02:41:58;;;;;;;1.63;1.30;;;9.30;99.90;;;;;;4923485;29;21604;-63
2024/02/19 02:44:25;;;;;;;2.63;1.30;;;9.30;99.90;;;;;;4921849;29;20641;-63
2024/02/19 02:46:52;;;;;;;1.15;1.00;;;9.40;99.90;;;;;;4917841;29;20054;-63
2024/02/19 02:49:18;;;;;;;1.10;1.00;;;9.40;99.90;;;;;;4913612;29;20151;-63
2024/02/19 02:51:45;;;;;;;2.22;1.25;;;9.40;99.90;;;;;;4913974;29;20069;-63
2024/02/19 02:54:13;;;;;;;1.40;1.00;;;9.40;99.90;;;;;;4921647;29;20444;-64
2024/02/19 02:56:39;;;;;;;1.20;1.02;;;9.40;99.90;;;;;;4925110;29;20103;-64
2024/02/19 02:59:06;;;;;;;1.33;1.10;;;9.40;99.90;;;;;;4920426;29;20061;-65
2024/02/19 03:01:33;;;;;;;2.30;1.25;;;9.40;99.90;;;;;;4906405;29;20052;-64
2024/02/19 03:04:00;;;;;;;1.42;0.95;;;9.50;99.90;;;;;;4921170;29;20051;-64
2024/02/19 03:06:27;;;;;;;1.10;1.00;;;9.50;99.90;;;;;;4916322;29;20052;-64
2024/02/19 03:08:53;;;;;;;1.20;1.10;;;9.40;99.90;;;;;;4925252;29;20047;-64
2024/02/19 03:11:21;;;;;;;2.95;1.20;;;9.50;99.90;;;;;;4921680;29;20044;-64
2024/02/19 03:13:49;;;;;;;1.13;1.00;;;9.50;99.90;;;;;;4919590;29;20051;-65
2024/02/19 03:16:17;;;;;;;1.00;0.90;;;9.50;99.90;;;;;;4917656;29;20159;-63
2024/02/19 03:18:45;;;;;;;1.58;1.13;;;9.50;99.90;;;;;;4918854;29;20051;-62
2024/02/19 03:21:15;;;;;;;1.38;1.23;;;9.50;99.90;;;;;;4914062;29;20048;-62
2024/02/19 03:23:49;;;;;;;2.35;1.02;;;9.50;99.90;;;;;;4917594;29;20457;-63
2024/02/19 03:26:15;;;;;;;1.98;1.30;;;9.50;99.90;;;;;;4916110;29;20044;-63
2024/02/19 03:28:53;;;;;;;1.05;0.90;;;9.50;99.90;;;;;;4917043;29;20622;-63
2024/02/19 03:31:20;;;;;;;1.00;0.90;;;9.50;99.90;;;;;;4916921;29;20040;-63
2024/02/19 03:33:47;;;;;;;3.47;0.90;;;9.50;99.90;;;;;;4918447;29;20693;-63
2024/02/19 03:36:13;;;;;;;1.65;1.00;;;9.50;99.90;;;;;;4913254;29;20056;-63
2024/02/19 03:38:41;;;;;;;1.33;1.10;;;9.50;99.90;;;;;;4919676;29;20146;-63
2024/02/19 03:41:08;;;;;;;1.27;0.93;;;9.40;99.90;;;;;;4916990;29;20683;-63
2024/02/19 03:43:35;;;;;;;1.50;0.90;;;9.40;99.90;;;;;;4912898;29;20056;-63
2024/02/19 03:46:04;;;;;;;0.98;0.88;;;9.40;99.90;;;;;;4916496;29;20513;-63
2024/02/19 03:48:33;;;;;;;1.10;0.90;;;9.40;99.90;;;;;;4917684;29;20058;-63
2024/02/19 03:51:00;;;;;;;3.05;1.02;;;9.40;99.90;;;;;;4916337;29;20048;-63
2024/02/19 03:53:27;;;;;;;1.67;1.23;;;9.40;99.90;;;;;;4916508;29;20133;-63
2024/02/19 03:55:55;;;;;;;4.25;1.42;;;9.40;99.90;;;;;;4917534;29;20529;-63
2024/02/19 03:58:22;;;;;;;2.53;1.20;;;9.40;99.90;;;;;;4916077;29;20049;-63
2024/02/19 04:00:49;;;;;;;2.55;1.10;;;9.40;99.90;;;;;;4918478;29;20075;-63
2024/02/19 04:03:16;;;;;;;2.90;1.20;;;9.40;99.90;;;;;;4912819;29;20052;-63
2024/02/19 04:05:43;;;;;;;1.88;1.10;;;9.40;99.90;;;;;;4919246;29;20099;-63
2024/02/19 04:08:10;;;;;;;2.38;1.63;;;9.40;99.90;;;;;;4918209;29;20051;-63
2024/02/19 04:10:37;;;;;;;3.25;1.50;;;9.50;99.90;;;;;;4915939;29;20048;-63
2024/02/19 04:13:03;;;;;;;1.70;1.27;;;9.50;99.90;;;;;;4918751;29;20607;-65
2024/02/19 04:15:30;;;;;;;1.60;1.50;;;9.50;99.90;;;;;;4914941;29;20070;-63
2024/02/19 04:17:57;;;;;;;1.80;1.40;;;9.50;99.90;;;;;;4914227;29;20079;-63
2024/02/19 04:20:24;;;;;;;3.92;1.73;;;9.50;99.90;;;;;;4914223;29;20060;-63
2024/02/19 04:22:50;;;;;;;2.35;1.50;;;9.50;99.90;;;;;;4920563;29;20059;-63
2024/02/19 04:25:17;;;;;;;1.98;1.67;;;9.50;99.90;;;;;;4915271;29;20049;-63
2024/02/19 04:27:44;;;;;;;1.92;1.73;;;9.50;99.90;;;;;;4918258;29;20050;-63
2024/02/19 04:30:11;;;;;;;2.67;1.85;;;9.50;99.90;;;;;;4913291;29;20448;-63
2024/02/19 04:32:38;;;;;;;2.60;1.83;;;9.50;99.90;;;;;;4917645;29;20051;-63
2024/02/19 04:35:05;;;;;;;3.10;2.00;;;9.60;99.90;;;;;;4912567;29;20520;-63
2024/02/19 04:37:32;;;;;;;2.65;2.38;;;9.50;99.90;;;;;;4916978;29;20079;-63
2024/02/19 04:39:59;;;;;;;2.80;1.92;;;9.50;99.90;;;;;;4919816;29;20111;-63
2024/02/19 04:42:26;;;;;;;3.55;1.90;;;9.50;99.90;;;;;;4916024;29;20048;-63
2024/02/19 04:44:52;;;;;;;2.80;2.15;;;9.50;99.90;;;;;;4917207;29;20124;-63
2024/02/19 04:47:19;;;;;;;2.15;1.95;;;9.50;99.90;;;;;;4918772;29;20044;-63
2024/02/19 04:49:47;;;;;;;2.20;2.00;;;9.50;99.90;;;;;;4919179;29;20564;-63
2024/02/19 04:52:14;;;;;;;1.70;1.60;;;9.50;99.90;;;;;;4920884;29;20055;-63
2024/02/19 04:54:40;;;;;;;1.98;1.77;;;9.50;99.90;;;;;;4924960;29;20079;-63
2024/02/19 04:57:07;;;;;;;1.50;1.40;;;9.50;99.90;;;;;;4915262;29;20059;-63
2024/02/19 04:59:34;;;;;;;1.88;1.70;;;9.50;99.90;;;;;;4924895;29;20719;-63
2024/02/19 05:02:01;;;;;;;3.05;1.77;;;9.50;99.90;;;;;;4927751;29;20102;-63
2024/02/19 05:04:28;;;;;;;3.80;2.50;;;9.50;99.90;;;;;;4921178;29;20078;-63
2024/02/19 05:06:55;;;;;;;3.80;2.33;;;9.50;99.90;;;;;;4923153;29;20437;-63
2024/02/19 05:09:22;;;;;;;2.22;1.95;;;9.50;99.90;;;;;;4922962;29;20072;-63
2024/02/19 05:11:48;;;;;;;2.17;1.83;;;9.50;99.90;;;;;;4928814;29;20068;-63
2024/02/19 05:14:15;;;;;;;1.70;1.60;;;9.50;99.90;;;;;;4914119;29;20055;-63
2024/02/19 05:16:42;;;;;;;1.70;1.60;;;9.50;99.90;;;;;;4915655;29;20147;-63
2024/02/19 05:19:09;;;;;;;2.65;1.42;;;9.60;99.90;;;;;;4916648;29;20762;-63
2024/02/19 05:21:43;;;;;;;2.75;1.88;;;9.60;99.90;;;;;;4910752;29;20076;-63
2024/02/19 05:24:13;;;;;;;4.72;1.80;;;9.50;99.90;;;;;;4910661;29;20062;-64
2024/02/19 05:26:42;;;;;;;1.65;1.55;;;9.50;99.90;;;;;;4910813;29;20052;-63
2024/02/19 05:29:09;;;;;;;1.88;1.52;;;9.50;99.90;;;;;;4910871;29;20044;-64
2024/02/19 05:31:39;;;;;;;2.10;1.90;;;9.50;99.90;;;;;;4911987;29;20048;-63
2024/02/19 05:34:08;;;;;;;2.50;2.30;;;9.50;99.90;;;;;;4913956;29;20059;-63
2024/02/19 05:36:35;;;;;;;2.58;2.00;;;9.40;99.90;;;;;;4909470;29;20143;-64
2024/02/19 05:39:02;;;;;;;4.03;2.03;;;9.40;99.90;;;;;;4912157;29;20100;-64
2024/02/19 05:41:29;;;;;;;2.53;2.33;;;9.40;99.90;;;;;;4911185;29;20056;-64
2024/02/19 05:43:56;;;;;;;3.13;2.85;;;9.40;99.90;;;;;;4908546;29;20469;-62
2024/02/19 05:46:23;;;;;;;2.85;2.58;;;9.40;99.90;;;;;;4918394;29;20084;-64
2024/02/19 05:48:50;;;;;;;2.90;2.58;;;9.40;99.90;;;;;;4919120;29;20059;-64
2024/02/19 05:51:17;;;;;;;3.03;2.47;;;9.40;99.90;;;;;;4914289;29;20568;-64
2024/02/19 05:53:44;;;;;;;3.30;3.00;;;9.40;99.90;;;;;;4915080;29;20048;-64
2024/02/19 05:56:11;;;;;;;4.03;3.00;;;9.50;99.90;;;;;;4915130;29;20051;-64
2024/02/19 05:58:40;;;;;;;3.10;2.80;;;9.40;99.90;;;;;;4909128;29;20331;-63
2024/02/19 06:01:07;;;;;;;3.28;2.97;;;9.40;99.90;;;;;;4908708;29;20052;-64
2024/02/19 06:03:35;;;;;;;4.57;3.47;;;9.40;99.90;;;;;;4922367;29;20052;-64
2024/02/19 06:06:03;;;;;;;2.92;2.72;;;9.40;99.90;;;;;;4923220;29;20767;-64
2024/02/19 06:08:30;;;;;;;3.53;2.80;;;9.40;99.90;;;;;;4918031;29;20517;-64
2024/02/19 06:10:58;;;;;;;4.03;2.78;;;9.40;99.90;;;;;;4924748;29;20098;-64
2024/02/19 06:13:25;;;;;;;4.35;2.97;;;9.40;99.90;;;;;;4921143;29;20147;-64
2024/02/19 06:15:52;;;;;;;3.72;2.92;;;9.40;99.90;;;;;;4921736;29;20481;-64
2024/02/19 06:18:19;;;;;;;3.25;2.95;;;9.40;99.90;;;;;;4912891;29;20072;-64
2024/02/19 06:20:49;;;;;;;5.28;3.63;;;9.40;99.90;;;;;;4913144;29;20525;-64
2024/02/19 06:23:16;;;;;;;3.35;3.05;;;9.40;99.90;;;;;;4909806;29;20478;-64
2024/02/19 06:25:43;;;;;;;3.30;3.00;;;9.40;99.90;;;;;;4914981;29;20054;-64
2024/02/19 06:28:11;;;;;;;3.33;3.05;;;9.40;99.90;;;;;;4913477;29;20056;-64
2024/02/19 06:30:38;;;;;;;3.97;2.83;;;9.40;99.90;;;;;;4912167;29;20063;-64
2024/02/19 06:33:05;;;;;;;3.13;2.83;;;9.40;99.90;;;;;;4915696;29;20082;-64
2024/02/19 06:35:32;;;;;;;3.08;2.85;;;9.40;99.90;;;;;;4917075;29;20590;-64
2024/02/19 06:37:59;;;;;;;3.67;2.60;;;9.40;99.90;;;;;;4915688;29;20054;-64
2024/02/19 06:40:26;;;;;;;2.78;2.58;;;9.40;99.90;;;;;;4916657;29;20104;-64
2024/02/19 06:42:53;;;;;;;2.53;2.33;;;9.40;99.90;;;;;;4919388;29;20477;-64
2024/02/19 06:45:21;;;;;;;4.78;2.50;;;9.40;99.90;;;;;;4918053;29;20073;-64
2024/02/19 06:47:49;;;;;;;5.78;4.22;;;9.50;99.90;;;;;;4916376;29;20048;-64
2024/02/19 06:50:15;;;;;;;6.45;4.75;;;9.40;99.90;;;;;;4912811;29;20055;-64
2024/02/19 06:52:45;;;;;;;5.97;4.53;;;9.50;99.90;;;;;;4922484;29;20078;-64
2024/02/19 06:55:16;;;;;;;7.10;6.38;;;9.50;99.90;;;;;;4915817;29;20090;-64
2024/02/19 06:57:43;;;;;;;6.70;6.00;;;9.50;99.90;;;;;;4921362;29;20138;-64
2024/02/19 07:00:11;;;;;;;5.50;4.68;;;9.50;99.90;;;;;;4914517;29;20099;-64
2024/02/19 07:02:39;;;;;;;6.82;5.13;;;9.50;99.90;;;;;;4921669;29;20075;-64
2024/02/19 07:05:06;;;;;;;4.20;3.80;;;9.50;99.90;;;;;;4920251;29;20498;-64
2024/02/19 07:07:35;;;;;;;6.75;3.20;;;9.50;99.90;;;;;;4920176;29;20080;-64
2024/02/19 07:10:03;;;;;;;3.22;2.88;;;9.50;99.90;;;;;;4920728;29;20240;-64
2024/02/19 07:12:30;;;;;;;2.90;2.60;;;9.60;99.90;;;;;;4924339;29;20071;-64
2024/02/19 07:14:57;;;;;;;3.72;3.22;;;9.60;99.90;;;;;;4919977;29;20117;-64
2024/02/19 07:17:24;;;;;;;4.47;3.40;;;9.60;99.90;;;;;;4915768;29;20187;-64
2024/02/19 07:19:51;;;;;;;4.47;3.25;;;9.60;99.90;;;;;;4909779;29;20052;-65
2024/02/19 07:22:18;;;;;;;3.58;3.28;;;9.60;99.90;;;;;;4906895;29;20045;-64
2024/02/19 07:24:46;;;;;;;2.33;2.13;;;9.60;99.90;;;;;;4911513;29;20048;-65
2024/02/19 07:27:13;;;;;;;4.53;3.10;;;9.60;99.90;;;;;;4915821;29;20062;-65
2024/02/19 07:29:40;;;;;;;3.25;2.85;;;9.70;99.90;;;;;;4906389;29;20048;-65
2024/02/19 07:32:07;;;;;;;2.78;2.50;;;9.80;99.90;;;;;;4916818;29;20063;-65
2024/02/19 07:34:34;;;;;;;4.30;2.83;;;9.80;99.90;;;;;;4920109;29;20047;-65
2024/02/19 07:37:01;;;;;;;2.60;2.40;;;9.80;99.90;;;;;;4919564;29;20112;-65
2024/02/19 07:39:28;;;;;;;2.50;2.30;;;9.90;99.90;;;;;;4918133;29;20143;-65
2024/02/19 07:41:55;;;;;;;3.97;2.63;;;9.90;99.90;;;;;;4923040;29;20055;-66
2024/02/19 07:44:22;;;;;;;2.72;2.25;;;9.90;99.90;;;;;;4918201;29;20052;-65
2024/02/19 07:46:48;;;;;;;4.22;1.65;;;9.90;99.90;;;;;;4922311;29;20043;-67
2024/02/19 07:49:16;;;;;;;2.20;1.80;;;10.00;99.90;;;;;;4920696;29;20047;-63
2024/02/19 07:51:43;;;;;;;3.67;2.05;;;10.00;99.90;;;;;;4919535;29;20043;-65
2024/02/19 07:54:09;;;;;;;7.03;3.10;;;10.10;99.90;;;;;;4919407;29;20067;-66
2024/02/19 07:56:36;;;;;;;7.20;2.47;;;10.20;99.90;;;;;;4916962;29;20048;-63
2024/02/19 07:59:03;;;;;;;3.83;1.65;;;10.20;99.90;;;;;;4918393;29;20086;-62
2024/02/19 08:01:30;;;;;;;3.47;1.70;;;10.20;99.90;;;;;;4917178;29;20056;-63
2024/02/19 08:03:57;;;;;;;2.47;1.63;;;10.20;99.90;;;;;;4914917;29;20048;-61
2024/02/19 08:06:24;;;;;;;3.30;1.70;;;10.30;99.90;;;;;;4913188;29;20075;-64
2024/02/19 08:08:51;;;;;;;2.90;1.67;;;10.40;99.90;;;;;;4922278;29;20143;-64
2024/02/19 08:11:21;;;;;;;2.90;1.30;;;10.40;99.90;;;;;;4916123;29;20404;-61
2024/02/19 08:13:47;;;;;;;2.03;1.58;;;10.50;99.90;;;;;;4916059;29;20055;-63
2024/02/19 08:16:15;;;;;;;4.93;1.73;;;10.60;99.90;;;;;;4913657;29;20107;-61
2024/02/19 08:18:42;;;;;;;3.45;1.88;;;10.70;99.90;;;;;;4912224;29;20047;-63
2024/02/19 08:21:09;;;;;;;2.63;1.50;;;10.70;99.90;;;;;;4920678;29;20052;-62
2024/02/19 08:23:35;;;;;;;3.47;1.60;;;10.80;99.90;;;;;;4914637;29;20517;-63
2024/02/19 08:26:02;;;;;;;3.33;1.70;;;10.90;99.90;;;;;;4921707;29;20051;-62
2024/02/19 08:28:29;;;;;;;4.53;1.73;;;10.90;99.90;;;;;;4916779;29;20144;-63
2024/02/19 08:30:57;;;;;;;5.65;1.50;;;10.90;99.90;;;;;;4919003;29;20047;-63
2024/02/19 08:33:24;;;;;;;6.65;1.70;;;11.00;99.90;;;;;;4915054;29;20071;-62
2024/02/19 08:35:51;;;;;;;3.63;1.42;;;11.00;99.90;;;;;;4911709;29;20052;-61
2024/02/19 08:38:18;;;;;;;2.92;1.85;;;11.00;99.90;;;;;;4916853;29;20093;-64
2024/02/19 08:40:45;;;;;;;2.65;1.30;;;11.00;99.90;;;;;;4924844;29;20047;-64
2024/02/19 08:43:12;;;;;;;2.15;1.60;;;11.10;99.90;;;;;;4907775;29;20056;-63
2024/02/19 08:45:39;;;;;;;4.55;1.75;;;11.10;99.90;;;;;;4922600;29;20052;-63
2024/02/19 08:48:07;;;;;;;2.53;1.67;;;11.20;99.90;;;;;;4911641;29;20158;-64
2024/02/19 08:50:35;;;;;;;5.55;1.98;;;11.30;99.90;;;;;;4914355;29;20414;-64
2024/02/19 08:53:02;;;;;;;5.85;1.63;;;11.30;99.90;;;;;;4915893;29;20060;-63
2024/02/19 08:55:34;;;;;;;3.63;1.75;;;11.30;99.90;;;;;;4922045;29;20116;-63
2024/02/19 08:58:01;;;;;;;4.93;1.83;;;11.30;99.90;;;;;;4911099;29;20059;-65
2024/02/19 09:00:28;;;;;;;5.03;2.88;;;11.30;99.90;;;;;;4908976;29;20051;-65
2024/02/19 09:02:59;;;;;;;5.10;2.30;;;11.30;99.90;;;;;;4906510;29;20153;-64
2024/02/19 09:05:26;;;;;;;2.80;1.92;;;11.50;99.90;;;;;;4912095;29;20055;-63
2024/02/19 09:07:53;;;;;;;2.83;1.83;;;11.60;99.90;;;;;;4916105;29;20065;-64
2024/02/19 09:10:20;;;;;;;4.80;2.10;;;11.70;99.90;;;;;;4912684;29;20051;-63
2024/02/19 09:12:47;;;;;;;3.75;2.42;;;11.80;99.90;;;;;;4920031;29;20048;-63
2024/02/19 09:15:14;;;;;;;3.67;2.10;;;11.90;99.90;;;;;;4914655;29;20703;-63
2024/02/19 09:17:41;;;;;;;4.88;2.10;;;11.90;99.90;;;;;;4916134;29;20123;-64
2024/02/19 09:20:08;;;;;;;3.55;2.50;;;12.00;99.90;;;;;;4906664;29;20382;-64
2024/02/19 09:22:35;;;;;;;4.80;2.75;;;12.00;99.90;;;;;;4916795;29;20051;-63
2024/02/19 09:25:02;;;;;;;4.78;2.50;;;11.90;99.90;;;;;;4915074;29;20082;-64
2024/02/19 09:27:28;;;;;;;4.90;2.80;;;11.90;99.90;;;;;;4910287;29;20127;-64
2024/02/19 09:29:56;;;;;;;6.28;2.50;;;11.90;99.90;;;;;;4916797;29;20753;-63
2024/02/19 09:32:23;;;;;;;6.65;2.85;;;11.90;99.90;;;;;;4909320;29;20485;-64
2024/02/19 09:34:50;;;;;;;6.72;2.58;;;11.90;99.90;;;;;;4916833;29;20569;-63
2024/02/19 09:37:16;;;;;;;5.80;3.03;;;11.90;99.90;;;;;;4911104;29;20139;-64
2024/02/19 09:39:49;;;;;;;7.53;3.30;;;11.90;99.90;;;;;;4911161;29;20087;-62
2024/02/19 09:42:16;;;;;;;6.15;3.80;;;11.90;99.90;;;;;;4908319;29;20055;-62
2024/02/19 09:44:43;;;;;;;5.68;3.30;;;11.90;99.90;;;;;;4921701;29;20639;-62
2024/02/19 09:47:15;;;;;;;4.05;2.60;;;12.00;99.90;;;;;;4915845;29;20095;-63
2024/02/19 09:49:42;;;;;;;4.60;2.90;;;12.00;99.90;;;;;;4916738;29;20104;-62
2024/02/19 09:52:11;;;;;;;7.20;2.92;;;12.10;99.90;;;;;;4913840;29;20058;-60
2024/02/19 09:54:38;;;;;;;8.43;3.17;;;12.20;99.90;;;;;;4915661;29;20511;-61
2024/02/19 09:57:10;;;;;;;5.07;2.92;;;12.20;99.90;;;;;;4910763;29;20132;-61
2024/02/19 09:59:40;;;;;;;4.50;2.50;;;12.20;99.90;;;;;;4908488;29;20148;-62
2024/02/19 10:02:07;;;;;;;5.68;3.30;;;12.30;99.90;;;;;;4914059;29;20058;-63
2024/02/19 10:04:35;;;;;;;6.32;2.75;;;12.40;99.90;;;;;;4917857;29;20198;-63
2024/02/19 10:07:02;;;;;;;6.22;3.38;;;12.70;99.90;;;;;;4910460;29;20497;-63
2024/02/19 10:09:29;;;;;;;7.07;3.00;;;12.90;99.90;;;;;;4909646;29;20056;-63
2024/02/19 10:11:59;;;;;;;5.07;2.65;;;13.00;99.90;;;;;;4914317;29;20095;-63
2024/02/19 10:14:26;;;;;;;6.53;3.30;;;13.10;99.90;;;;;;4913612;29;20096;-63
2024/02/19 10:16:57;;;;;;;7.05;3.03;;;13.10;99.90;;;;;;4915929;29;20056;-62
2024/02/19 10:19:25;;;;;;;4.82;3.13;;;13.10;99.90;;;;;;4912584;29;20052;-62
2024/02/19 10:21:53;;;;;;;6.60;3.72;;;13.20;99.90;;;;;;4922645;29;20127;-60
2024/02/19 10:24:19;;;;;;;4.03;2.70;;;13.40;99.90;;;;;;4921123;29;20086;-60
2024/02/19 10:26:49;;;;;;;7.50;3.30;;;13.40;99.90;;;;;;4911820;29;20048;-62
2024/02/19 10:29:18;;;;;;;7.05;3.10;;;13.50;99.90;;;;;;4918898;29;20048;-62
2024/02/19 10:31:45;;;;;;;6.63;3.22;;;13.40;99.90;;;;;;4921367;29;20058;-63
2024/02/19 10:34:14;;;;;;;8.05;3.47;;;13.40;99.90;;;;;;4918205;29;20099;-63
2024/02/19 10:36:43;;;;;;;5.55;3.30;;;13.40;99.90;;;;;;4920100;29;20051;-61
2024/02/19 10:39:10;;;;;;;8.32;3.15;;;13.50;99.90;;;;;;4913276;29;20055;-61
2024/02/19 10:41:38;;;;;;;7.70;3.08;;;13.60;99.90;;;;;;4914186;29;20501;-61
2024/02/19 10:44:06;;;;;;;5.80;3.28;;;13.50;99.90;;;;;;4912070;29;20056;-60
2024/02/19 10:46:33;;;;;;;5.72;3.17;;;13.60;99.90;;;;;;4917211;29;20047;-63
2024/02/19 10:49:00;;;;;;;7.82;3.85;;;13.70;99.90;;;;;;4914833;29;20052;-63
2024/02/19 10:51:28;;;;;;;6.78;3.63;;;13.70;99.90;;;;;;4915575;29;20123;-62
2024/02/19 10:54:03;;;;;;;7.07;3.92;;;13.70;99.90;;;;;;4926104;29;20113;-63
2024/02/19 10:56:43;;;;;;;7.05;3.20;;;13.90;99.90;;;;;;4920370;29;20052;-63
2024/02/19 10:59:11;;;;;;;7.45;3.75;;;14.00;99.90;;;;;;4910314;29;20055;-63
2024/02/19 11:01:44;;;;;;;7.60;3.25;;;13.90;99.90;;;;;;4924450;29;20060;-64
2024/02/19 11:04:23;;;;;;;4.65;2.72;;;14.00;99.90;;;;;;4924530;29;20096;-65
2024/02/19 11:06:55;;;;;;;8.35;2.70;;;14.00;99.90;;;;;;4922483;29;20106;-63
2024/02/19 11:09:29;;;;;;;8.05;2.65;;;14.20;99.90;;;;;;4925529;29;20496;-64
2024/02/19 11:11:58;;;;;;;8.07;3.00;;;14.20;99.90;;;;;;4920492;29;20211;-65
2024/02/19 11:14:32;;;;;;;4.88;2.55;;;14.40;99.90;;;;;;4913888;29;20079;-65
2024/02/19 11:17:00;;;;;;;9.85;2.65;;;14.60;99.90;;;;;;4912599;29;20055;-64
2024/02/19 11:19:28;;;;;;;4.57;2.22;;;14.50;99.90;;;;;;4909869;29;20107;-65
2024/02/19 11:22:09;;;;;;;7.15;3.00;;;14.40;99.90;;;;;;4917594;29;20576;-64
2024/02/19 11:24:37;;;;;;;5.55;2.45;;;14.20;99.90;;;;;;4906073;29;20056;-62
2024/02/19 11:27:05;;;;;;;5.75;2.58;;;14.00;99.90;;;;;;4909175;29;20766;-62
2024/02/19 11:29:32;;;;;;;6.15;2.17;;;14.00;99.90;;;;;;4907717;29;20066;-62
2024/02/19 11:32:17;;;;;;;5.45;2.58;;;14.20;99.90;;;;;;4922009;29;20052;-62
2024/02/19 11:34:43;;;;;;;7.13;2.33;;;14.00;99.90;;;;;;4922021;29;20421;-63
2024/02/19 11:37:12;;;;;;;3.95;1.58;;;13.90;99.90;;;;;;4911521;29;20076;-63
2024/02/19 11:39:39;;;;;;;2.92;1.48;;;13.90;99.90;;;;;;4919300;29;20512;-61
2024/02/19 11:42:10;;;;;;;4.82;1.80;;;13.80;99.90;;;;;;4913467;29;20568;-62
2024/02/19 11:44:37;;;;;;;4.10;1.75;;;13.80;99.90;;;;;;4910148;29;20060;-63
2024/02/19 11:47:04;;;;;;;3.50;1.58;;;13.60;99.90;;;;;;4910092;29;20048;-63
2024/02/19 11:49:31;;;;;;;5.30;1.92;;;13.60;99.90;;;;;;4903342;29;20119;-65
2024/02/19 11:51:58;;;;;;;9.40;2.30;;;13.50;99.90;;;;;;4908174;29;20505;-63
2024/02/19 11:54:38;;;;;;;4.57;1.77;;;13.30;99.90;;;;;;4902707;29;20501;-63
2024/02/19 11:57:10;;;;;;;4.47;1.80;;;13.20;99.90;;;;;;4905285;29;20464;-63
2024/02/19 11:59:36;;;;;;;4.53;1.80;;;13.20;99.90;;;;;;4906480;29;20116;-64
2024/02/19 12:02:04;;;;;;;4.45;1.88;;;13.20;99.90;;;;;;4907669;29;20512;-63
2024/02/19 12:04:37;;;;;;;6.68;1.90;;;13.20;99.90;;;;;;4907062;29;20066;-64
2024/02/19 12:07:08;;;;;;;5.40;2.15;;;13.30;99.90;;;;;;4904267;29;20044;-63
2024/02/19 12:09:35;;;;;;;5.05;2.05;;;13.30;99.90;;;;;;4914044;29;20048;-64
2024/02/19 12:12:03;;;;;;;8.60;2.85;;;13.10;99.90;;;;;;4909320;29;20104;-64
2024/02/19 12:14:29;;;;;;;3.97;2.00;;;13.10;99.90;;;;;;4910446;29;20048;-64
2024/02/19 12:16:58;;;;;;;3.78;1.95;;;13.20;99.90;;;;;;4905864;29;20095;-63
2024/02/19 12:19:25;;;;;;;5.75;2.65;;;13.30;99.90;;;;;;4914976;29;20139;-62
2024/02/19 12:21:53;;;;;;;5.10;2.20;;;13.30;99.90;;;;;;4894579;29;20060;-63
2024/02/19 12:24:20;;;;;;;4.70;1.80;;;13.40;99.90;;;;;;4907834;29;20048;-62
2024/02/19 12:26:47;;;;;;;6.68;2.00;;;13.40;99.90;;;;;;4917949;29;20513;-63
2024/02/19 12:29:14;;;;;;;5.45;1.40;;;13.40;99.90;;;;;;4916148;29;20044;-64
2024/02/19 12:31:40;;;;;;;7.22;2.08;;;13.30;99.90;;;;;;4904667;29;20580;-63
2024/02/19 12:34:07;;;;;;;9.73;2.25;;;13.20;99.90;;;;;;4909626;29;20064;-62
2024/02/19 12:36:35;;;;;;;5.93;2.30;;;13.30;99.90;;;;;;4911088;29;20151;-62
2024/02/19 12:39:06;;;;;;;6.05;2.30;;;13.20;99.90;;;;;;4915202;29;20420;-64
2024/02/19 12:41:33;;;;;;;4.10;1.92;;;13.20;99.90;;;;;;4915030;29;20062;-63
2024/02/19 12:44:00;;;;;;;5.10;1.70;;;13.10;99.90;;;;;;4909207;29;20052;-63
2024/02/19 12:46:27;;;;;;;6.45;2.25;;;13.10;99.90;;;;;;4910211;29;20442;-65
2024/02/19 12:48:57;;;;;;;6.00;1.92;;;13.20;99.90;;;;;;4915299;29;20469;-63
2024/02/19 12:51:33;;;;;;;4.43;1.88;;;13.40;99.90;;;;;;4911430;29;20058;-64
2024/02/19 12:54:00;;;;;;;5.25;1.63;;;13.70;99.90;;;;;;4924224;29;20477;-63
2024/02/19 12:56:26;;;;;;;3.20;1.55;;;14.00;99.90;;;;;;4906891;29;20059;-62